createdAt,value
2019-04-19T00:00:56.989Z,13.09
2019-04-19T00:03:27.352Z,13.10
2019-04-19T00:05:54.144Z,13.05
2019-04-19T00:08:37.236Z,13.05
2019-04-19T00:11:06.508Z,13.00
2019-04-19T00:13:23.801Z,13.01
2019-04-19T00:15:52.272Z,12.98
2019-04-19T00:18:21.753Z,12.97
2019-04-19T00:21:10.743Z,12.99
2019-04-19T00:23:31.053Z,12.96
2019-04-19T00:25:51.601Z,12.94
2019-04-19T00:28:31.372Z,12.93
2019-04-19T00:30:58.109Z,12.92
2019-04-19T00:33:29.363Z,12.91
2019-04-19T00:35:51.712Z,12.89
2019-04-19T00:38:36.935Z,12.85
2019-04-19T00:41:09.589Z,12.85
2019-04-19T00:43:53.573Z,12.79
2019-04-19T00:46:29.301Z,12.72
2019-04-19T00:48:55.148Z,12.72
2019-04-19T00:51:23.987Z,12.66
2019-04-19T00:53:55.689Z,12.67
2019-04-19T00:56:16.826Z,12.61
2019-04-19T00:58:50.278Z,12.56
2019-04-19T01:01:19.468Z,12.52
2019-04-19T01:03:47.101Z,12.52
2019-04-19T01:06:16.818Z,12.49
2019-04-19T01:08:56.631Z,12.46
2019-04-19T01:11:28.553Z,12.41
2019-04-19T01:13:58.934Z,12.42
2019-04-19T01:16:24.098Z,12.43
2019-04-19T01:18:55.147Z,12.36
2019-04-19T01:21:15.384Z,12.33
2019-04-19T01:23:48.184Z,12.31
2019-04-19T01:26:16.432Z,12.29
2019-04-19T01:28:51.216Z,12.28
2019-04-19T01:31:19.092Z,12.24
2019-04-19T01:33:45.927Z,12.22
2019-04-19T01:36:14.637Z,12.19
2019-04-19T01:38:47.916Z,12.15
2019-04-19T01:41:29.616Z,12.11
2019-04-19T01:43:59.639Z,12.12
2019-04-19T01:46:34.093Z,12.07
2019-04-19T01:49:05.656Z,12.06
2019-04-19T01:51:43.845Z,12.07
2019-04-19T01:54:29.638Z,12.05
2019-04-19T01:56:48.310Z,11.99
2019-04-19T01:59:13.611Z,11.97
2019-04-19T02:01:42.030Z,11.95
2019-04-19T02:04:15.575Z,11.93
2019-04-19T02:06:44.559Z,11.91
2019-04-19T02:09:25.417Z,11.86
2019-04-19T02:11:53.502Z,11.81
2019-04-19T02:14:20.590Z,11.82
2019-04-19T02:16:51.741Z,11.82
2019-04-19T02:19:21.042Z,11.77
2019-04-19T02:21:48.885Z,11.74
2019-04-19T02:24:17.033Z,11.69
2019-04-19T02:26:53.280Z,11.67
2019-04-19T02:29:20.250Z,11.69
2019-04-19T02:32:15.631Z,11.63
2019-04-19T02:34:39.521Z,11.61
2019-04-19T02:37:16.150Z,11.58
2019-04-19T02:39:45.275Z,11.56
2019-04-19T02:44:58.030Z,11.52
2019-04-19T02:47:39.262Z,11.48
2019-04-19T02:52:33.504Z,11.47
2019-04-19T02:57:32.807Z,11.44
2019-04-19T03:00:13.748Z,11.40
2019-04-19T03:02:50.319Z,11.39
2019-04-19T03:07:17.481Z,11.34
2019-04-19T03:09:47.303Z,11.25
2019-04-19T03:12:38.484Z,11.22
2019-04-19T03:15:02.005Z,11.21
2019-04-19T03:17:35.161Z,11.20
2019-04-19T03:20:01.668Z,11.14
2019-04-19T03:22:28.378Z,11.12
2019-04-19T03:25:08.251Z,11.09
2019-04-19T03:27:24.243Z,11.07
2019-04-19T03:29:49.196Z,11.02
2019-04-19T03:32:57.441Z,11.01
2019-04-19T03:35:05.109Z,10.97
2019-04-19T03:37:38.315Z,10.94
2019-04-19T03:40:12.824Z,10.91
2019-04-19T03:42:47.460Z,10.89
2019-04-19T03:45:12.832Z,10.91
2019-04-19T03:47:48.898Z,10.91
2019-04-19T03:50:15.483Z,10.89
2019-04-19T03:52:42.669Z,10.86
2019-04-19T03:55:13.159Z,10.83
2019-04-19T03:57:37.393Z,10.80
2019-04-19T03:59:56.370Z,10.75
2019-04-19T04:02:31.758Z,10.70
2019-04-19T04:04:59.533Z,10.68
2019-04-19T04:07:28.669Z,10.67
2019-04-19T04:09:59.252Z,10.65
2019-04-19T04:12:39.555Z,10.62
2019-04-19T04:15:11.994Z,10.60
2019-04-19T04:17:31.136Z,10.57
2019-04-19T04:20:00.868Z,10.55
2019-04-19T04:22:33.501Z,10.53
2019-04-19T04:25:09.802Z,10.53
2019-04-19T04:27:43.721Z,10.47
2019-04-19T04:30:10.143Z,10.42
2019-04-19T04:32:43.519Z,10.39
2019-04-19T04:35:13.602Z,10.39
2019-04-19T04:37:46.950Z,10.37
2019-04-19T04:40:02.165Z,10.34
2019-04-19T04:42:37.661Z,10.32
2019-04-19T04:45:23.437Z,10.32
2019-04-19T04:47:47.763Z,10.29
2019-04-19T04:50:35.506Z,10.25
2019-04-19T04:52:40.349Z,10.22
2019-04-19T04:55:11.833Z,10.18
2019-04-19T04:57:48.403Z,10.18
2019-04-19T05:00:10.263Z,10.15
2019-04-19T05:02:58.746Z,10.15
2019-04-19T05:05:29.700Z,10.13
2019-04-19T05:08:04.356Z,10.17
2019-04-19T05:10:30.711Z,10.17
2019-04-19T05:15:34.842Z,10.18
2019-04-19T05:18:21.375Z,10.18
2019-04-19T05:20:29.082Z,10.20
2019-04-19T05:23:02.744Z,10.20
2019-04-19T05:25:35.754Z,10.20
2019-04-19T05:28:01.251Z,10.26
2019-04-19T05:30:15.321Z,10.26
2019-04-19T05:32:55.891Z,10.31
2019-04-19T05:35:27.334Z,10.37
2019-04-19T05:38:03.056Z,10.45
2019-04-19T05:40:32.658Z,10.49
2019-04-19T05:43:33.286Z,10.54
2019-04-19T05:46:10.646Z,10.59
2019-04-19T05:48:08.202Z,10.66
2019-04-19T05:50:56.730Z,10.73
2019-04-19T05:53:14.224Z,10.78
2019-04-19T05:55:30.429Z,10.90
2019-04-19T05:58:11.435Z,10.97
2019-04-19T06:00:47.258Z,11.06
2019-04-19T06:03:14.168Z,11.12
2019-04-19T06:06:05.133Z,11.29
2019-04-19T06:08:14.044Z,11.40
2019-04-19T06:10:40.887Z,11.51
2019-04-19T06:13:08.511Z,11.58
2019-04-19T06:15:56.957Z,11.66
2019-04-19T06:18:21.772Z,11.77
2019-04-19T06:21:04.209Z,11.96
2019-04-19T06:23:29.648Z,12.04
2019-04-19T06:26:21.460Z,12.15
2019-04-19T06:28:28.644Z,12.23
2019-04-19T06:30:55.053Z,12.37
2019-04-19T06:33:26.625Z,12.48
2019-04-19T06:35:49.650Z,12.63
2019-04-19T06:38:09.997Z,12.75
2019-04-19T06:40:45.280Z,12.89
2019-04-19T06:43:14.207Z,12.98
2019-04-19T06:45:55.582Z,13.07
2019-04-19T06:48:14.398Z,13.15
2019-04-19T06:50:43.146Z,13.29
2019-04-19T06:53:10.163Z,13.45
2019-04-19T06:55:44.980Z,13.56
2019-04-19T06:58:15.605Z,13.71
2019-04-19T07:00:54.946Z,13.78
2019-04-19T07:03:10.936Z,13.88
2019-04-19T07:05:49.329Z,14.02
2019-04-19T07:08:52.862Z,14.09
2019-04-19T07:11:00.537Z,14.18
2019-04-19T07:13:26.204Z,14.32
2019-04-19T07:16:19.544Z,14.46
2019-04-19T07:18:24.991Z,14.57
2019-04-19T07:21:00.320Z,14.70
2019-04-19T07:23:34.255Z,14.76
2019-04-19T07:26:04.227Z,14.87
2019-04-19T07:28:17.337Z,15.04
2019-04-19T07:30:48.204Z,15.16
2019-04-19T07:33:15.570Z,15.24
2019-04-19T07:36:00.586Z,15.37
2019-04-19T07:38:35.917Z,15.57
2019-04-19T07:41:05.892Z,15.70
2019-04-19T07:43:28.676Z,15.86
2019-04-19T07:46:09.419Z,15.99
2019-04-19T07:48:23.065Z,16.15
2019-04-19T07:50:58.612Z,16.22
2019-04-19T07:53:29.576Z,16.30
2019-04-19T07:56:00.459Z,16.40
2019-04-19T07:58:43.554Z,16.48
2019-04-19T08:01:16.183Z,16.60
2019-04-19T08:04:00.964Z,16.82
2019-04-19T08:06:18.850Z,17.01
2019-04-19T08:09:02.571Z,17.16
2019-04-19T08:11:26.016Z,17.30
2019-04-19T08:16:16.416Z,17.51
2019-04-19T08:28:35.025Z,18.24
2019-04-19T08:30:57.937Z,18.39
2019-04-19T08:33:23.972Z,18.48
2019-04-19T08:35:55.869Z,18.62
2019-04-19T08:38:25.712Z,18.74
2019-04-19T08:41:05.933Z,18.91
2019-04-19T08:43:42.396Z,19.03
2019-04-19T08:46:00.778Z,19.08
2019-04-19T08:48:45.533Z,19.20
2019-04-19T08:51:12.131Z,19.24
2019-04-19T08:53:54.293Z,19.37
2019-04-19T08:56:24.251Z,19.48
2019-04-19T08:58:58.238Z,19.67
2019-04-19T09:01:36.900Z,19.78
2019-04-19T09:04:07.124Z,19.98
2019-04-19T09:07:15.892Z,20.03
2019-04-19T09:08:58.141Z,20.08
2019-04-19T09:11:30.938Z,20.28
2019-04-19T09:14:04.839Z,20.41
2019-04-19T09:16:29.900Z,20.52
2019-04-19T09:19:07.261Z,20.68
2019-04-19T09:21:27.400Z,20.83
2019-04-19T09:23:52.912Z,21.01
2019-04-19T09:26:30.385Z,21.13
2019-04-19T09:29:09.905Z,21.31
2019-04-19T09:31:29.852Z,21.54
2019-04-19T09:33:47.388Z,21.70
2019-04-19T09:36:18.703Z,21.86
2019-04-19T09:39:00.783Z,21.96
2019-04-19T09:41:24.636Z,22.03
2019-04-19T09:43:58.645Z,22.11
2019-04-19T09:46:16.777Z,22.24
2019-04-19T09:49:02.392Z,22.38
2019-04-19T09:51:33.895Z,22.37
2019-04-19T09:54:10.776Z,22.51
2019-04-19T09:56:34.229Z,22.69
2019-04-19T09:58:57.552Z,22.77
2019-04-19T10:01:22.751Z,22.69
2019-04-19T10:03:52.653Z,22.78
2019-04-19T10:06:17.503Z,22.96
2019-04-19T10:08:45.832Z,23.12
2019-04-19T10:11:14.821Z,23.26
2019-04-19T10:13:43.999Z,23.25
2019-04-19T10:16:24.187Z,23.46
2019-04-19T10:18:59.304Z,23.44
2019-04-19T10:21:33.361Z,23.67
2019-04-19T10:24:00.983Z,23.82
2019-04-19T10:26:38.421Z,24.01
2019-04-19T10:29:16.700Z,24.18
2019-04-19T10:31:45.319Z,24.30
2019-04-19T10:34:14.402Z,24.30
2019-04-19T10:36:42.867Z,24.47
2019-04-19T10:39:13.870Z,24.69
2019-04-19T10:41:43.810Z,24.83
2019-04-19T10:44:16.949Z,24.87
2019-04-19T10:46:43.375Z,24.98
2019-04-19T10:49:17.438Z,25.24
2019-04-19T10:51:47.043Z,25.38
2019-04-19T10:54:15.334Z,25.50
2019-04-19T10:56:48.547Z,25.60
2019-04-19T10:59:16.928Z,25.62
2019-04-19T11:01:45.461Z,25.76
2019-04-19T11:04:15.028Z,26.06
2019-04-19T11:06:45.251Z,26.26
2019-04-19T11:09:14.382Z,26.34
2019-04-19T11:11:43.556Z,26.42
2019-04-19T11:14:12.237Z,26.50
2019-04-19T11:16:41.868Z,26.55
2019-04-19T11:19:17.416Z,26.60
2019-04-19T11:21:41.325Z,26.62
2019-04-19T11:24:09.741Z,26.53
2019-04-19T11:26:38.999Z,26.52
2019-04-19T11:29:07.987Z,26.51
2019-04-19T11:31:37.930Z,26.58
2019-04-19T11:34:06.949Z,26.67
2019-04-19T11:36:35.639Z,26.89
2019-04-19T11:39:07.314Z,27.20
2019-04-19T11:41:36.839Z,27.28
2019-04-19T11:44:13.896Z,27.29
2019-04-19T11:46:36.055Z,27.16
2019-04-19T11:49:05.806Z,27.37
2019-04-19T11:51:34.412Z,27.48
2019-04-19T11:54:02.860Z,27.58
2019-04-19T11:56:37.822Z,27.83
2019-04-19T11:59:14.360Z,27.88
2019-04-19T12:01:46.003Z,27.70
2019-04-19T12:04:14.496Z,27.75
2019-04-19T12:06:42.934Z,27.63
2019-04-19T12:09:14.030Z,27.66
2019-04-19T12:11:42.710Z,27.57
2019-04-19T12:14:12.286Z,27.24
2019-04-19T12:16:41.298Z,27.39
2019-04-19T12:19:11.992Z,27.62
2019-04-19T12:21:41.285Z,27.80
2019-04-19T12:24:10.862Z,28.04
2019-04-19T12:26:39.842Z,28.24
2019-04-19T12:29:09.277Z,28.13
2019-04-19T12:31:37.657Z,27.82
2019-04-19T12:34:09.203Z,27.54
2019-04-19T12:36:37.120Z,27.50
2019-04-19T12:39:09.314Z,27.83
2019-04-19T12:41:39.795Z,28.00
2019-04-19T12:44:09.044Z,28.27
2019-04-19T12:46:37.591Z,28.29
2019-04-19T12:49:06.755Z,28.17
2019-04-19T12:51:36.475Z,28.18
2019-04-19T12:54:05.846Z,28.16
2019-04-19T12:56:34.251Z,28.30
2019-04-19T12:59:02.534Z,27.98
2019-04-19T13:01:32.535Z,27.61
2019-04-19T13:04:02.577Z,27.86
2019-04-19T13:06:35.743Z,27.93
2019-04-19T13:09:05.657Z,28.12
2019-04-19T13:11:36.736Z,28.07
2019-04-19T13:14:05.867Z,28.19
2019-04-19T13:16:34.705Z,28.41
2019-04-19T13:19:03.743Z,28.31
2019-04-19T13:21:32.446Z,28.16
2019-04-19T13:24:00.770Z,28.33
2019-04-19T13:26:29.378Z,28.37
2019-04-19T13:28:57.808Z,28.42
2019-04-19T13:31:27.119Z,28.28
2019-04-19T13:33:55.733Z,28.00
2019-04-19T13:36:26.869Z,28.02
2019-04-19T13:39:13.297Z,28.41
2019-04-19T13:41:48.470Z,28.48
2019-04-19T13:44:16.973Z,28.67
2019-04-19T13:46:46.690Z,28.88
2019-04-19T13:49:16.735Z,28.88
2019-04-19T13:51:45.208Z,28.99
2019-04-19T13:54:14.672Z,29.09
2019-04-19T13:56:43.171Z,29.19
2019-04-19T13:59:12.512Z,29.27
2019-04-19T14:01:42.756Z,29.33
2019-04-19T14:04:11.462Z,29.13
2019-04-19T14:06:40.290Z,29.15
2019-04-19T14:09:11.445Z,29.35
2019-04-19T14:11:39.921Z,29.43
2019-04-19T14:14:08.230Z,29.31
2019-04-19T14:16:37.698Z,29.38
2019-04-19T14:19:07.219Z,29.40
2019-04-19T14:21:37.086Z,29.18
2019-04-19T14:24:05.605Z,29.06
2019-04-19T14:26:39.744Z,28.73
2019-04-19T14:29:05.346Z,28.89
2019-04-19T14:31:34.490Z,29.16
2019-04-19T14:34:03.451Z,29.42
2019-04-19T14:36:31.849Z,29.48
2019-04-19T14:39:00.461Z,29.32
2019-04-19T14:41:29.577Z,29.40
2019-04-19T14:43:59.482Z,29.35
2019-04-19T14:46:28.931Z,29.30
2019-04-19T14:48:58.544Z,29.27
2019-04-19T14:51:30.077Z,29.29
2019-04-19T14:53:58.191Z,29.45
2019-04-19T14:56:28.160Z,29.48
2019-04-19T14:58:56.596Z,29.45
2019-04-19T15:01:26.809Z,29.29
2019-04-19T15:03:59.578Z,29.34
2019-04-19T15:06:29.029Z,29.39
2019-04-19T15:08:57.541Z,29.08
2019-04-19T15:11:25.846Z,28.91
2019-04-19T15:13:55.756Z,28.79
2019-04-19T15:16:24.771Z,28.85
2019-04-19T15:18:53.142Z,28.83
2019-04-19T15:21:23.881Z,28.62
2019-04-19T15:23:52.497Z,28.75
2019-04-19T15:26:20.903Z,28.70
2019-04-19T15:28:49.250Z,28.70
2019-04-19T15:31:18.398Z,28.67
2019-04-19T15:33:48.235Z,28.67
2019-04-19T15:36:19.701Z,28.28
2019-04-19T15:38:48.144Z,28.24
2019-04-19T15:41:16.473Z,28.25
2019-04-19T15:43:46.459Z,28.27
2019-04-19T15:46:15.661Z,28.33
2019-04-19T15:48:50.049Z,28.32
2019-04-19T15:51:21.984Z,28.52
2019-04-19T15:53:44.585Z,28.60
2019-04-19T15:56:14.438Z,28.42
2019-04-19T15:58:43.061Z,28.39
2019-04-19T16:01:14.393Z,28.20
2019-04-19T16:03:47.891Z,28.14
2019-04-19T16:06:20.933Z,27.80
2019-04-19T16:09:07.066Z,27.50
2019-04-19T16:11:44.584Z,27.26
2019-04-19T16:14:14.082Z,26.99
2019-04-19T16:16:43.144Z,26.89
2019-04-19T16:19:12.271Z,26.85
2019-04-19T16:21:46.221Z,26.94
2019-04-19T16:24:11.353Z,26.81
2019-04-19T16:26:41.280Z,26.76
2019-04-19T16:29:22.245Z,26.76
2019-04-19T16:31:40.414Z,26.71
2019-04-19T16:34:10.277Z,26.54
2019-04-19T16:36:39.539Z,26.24
2019-04-19T16:39:09.276Z,25.92
2019-04-19T16:41:37.794Z,25.68
2019-04-19T16:44:07.315Z,25.60
2019-04-19T16:46:37.082Z,25.47
2019-04-19T16:49:06.598Z,25.36
2019-04-19T16:51:45.329Z,25.32
2019-04-19T16:54:05.931Z,25.32
2019-04-19T16:56:35.496Z,25.26
2019-04-19T16:59:05.152Z,25.22
2019-04-19T17:01:34.889Z,25.19
2019-04-19T17:04:03.787Z,25.15
2019-04-19T17:06:32.869Z,25.11
2019-04-19T17:09:02.320Z,25.03
2019-04-19T17:11:32.615Z,25.05
2019-04-19T17:14:00.870Z,24.94
2019-04-19T17:16:46.787Z,24.88
2019-04-19T17:19:35.279Z,24.84
2019-04-19T17:22:11.838Z,24.74
2019-04-19T17:24:34.755Z,24.69
2019-04-19T17:27:03.251Z,24.66
2019-04-19T17:29:33.105Z,24.65
2019-04-19T17:32:02.492Z,24.50
2019-04-19T17:34:32.012Z,24.42
2019-04-19T17:37:00.422Z,24.37
2019-04-19T17:39:28.923Z,24.29
2019-04-19T17:41:57.154Z,24.22
2019-04-19T17:44:25.863Z,24.11
2019-04-19T17:46:54.524Z,24.06
2019-04-19T17:49:24.669Z,24.00
2019-04-19T17:52:01.850Z,23.95
2019-04-19T17:54:45.685Z,23.84
2019-04-19T17:56:53.389Z,23.81
2019-04-19T17:59:22.895Z,23.72
2019-04-19T18:01:52.974Z,23.65
2019-04-19T18:04:22.005Z,23.51
2019-04-19T18:06:56.392Z,23.46
2019-04-19T18:09:22.868Z,23.31
2019-04-19T18:11:51.460Z,23.28
2019-04-19T18:14:19.919Z,23.27
2019-04-19T18:16:48.487Z,23.23
2019-04-19T18:19:25.108Z,23.18
2019-04-19T18:21:48.154Z,23.21
2019-04-19T18:24:21.308Z,23.19
2019-04-19T18:26:46.748Z,23.18
2019-04-19T18:29:20.386Z,23.18
2019-04-19T18:31:50.981Z,23.12
2019-04-19T18:34:20.874Z,23.02
2019-04-19T18:36:54.274Z,22.94
2019-04-19T18:39:20.161Z,22.79
2019-04-19T18:41:49.622Z,22.72
2019-04-19T18:44:25.850Z,22.67
2019-04-19T18:46:49.436Z,22.65
2019-04-19T18:49:17.913Z,22.61
2019-04-19T18:51:49.573Z,22.56
2019-04-19T18:54:22.889Z,22.46
2019-04-19T18:56:48.782Z,22.34
2019-04-19T18:59:21.957Z,22.25
2019-04-19T19:01:48.053Z,22.14
2019-04-19T19:04:22.850Z,22.04
2019-04-19T19:06:48.857Z,21.92
2019-04-19T19:09:19.215Z,21.81
2019-04-19T19:11:56.745Z,21.73
2019-04-19T19:14:21.082Z,21.59
2019-04-19T19:16:51.278Z,21.49
2019-04-19T19:19:24.302Z,21.43
2019-04-19T19:21:50.394Z,21.36
2019-04-19T19:24:39.111Z,21.29
2019-04-19T19:27:02.460Z,21.21
2019-04-19T19:29:18.540Z,21.09
2019-04-19T19:31:47.176Z,21.01
2019-04-19T19:34:20.668Z,20.92
2019-04-19T19:36:49.247Z,20.84
2019-04-19T19:39:24.125Z,20.73
2019-04-19T19:44:31.035Z,20.60
2019-04-19T19:47:20.567Z,20.51
2019-04-19T19:50:07.445Z,20.41
2019-04-19T19:52:09.178Z,20.32
2019-04-19T19:54:48.558Z,20.24
2019-04-19T19:57:11.482Z,20.18
2019-04-19T19:59:31.270Z,20.13
2019-04-19T20:02:07.434Z,20.07
2019-04-19T20:04:24.036Z,19.98
2019-04-19T20:07:00.162Z,19.91
2019-04-19T20:09:27.457Z,19.79
2019-04-19T20:11:57.184Z,19.72
2019-04-19T20:14:26.113Z,19.66
2019-04-19T20:16:54.766Z,19.58
2019-04-19T20:19:24.232Z,19.52
2019-04-19T20:22:01.706Z,19.48
2019-04-19T20:24:40.953Z,19.43
2019-04-19T20:27:05.035Z,19.35
2019-04-19T20:29:28.707Z,19.28
2019-04-19T20:31:54.533Z,19.21
2019-04-19T20:34:29.978Z,19.14
2019-04-19T20:36:53.491Z,19.04
2019-04-19T20:39:24.849Z,19.00
2019-04-19T20:41:57.249Z,18.95
2019-04-19T20:44:40.719Z,18.88
2019-04-19T20:46:52.516Z,18.83
2019-04-19T20:49:21.319Z,18.70
2019-04-19T20:52:00.559Z,18.54
2019-04-19T20:54:46.320Z,18.36
2019-04-19T20:57:14.412Z,18.17
2019-04-19T20:59:34.679Z,18.08
2019-04-19T21:01:54.992Z,17.98
2019-04-19T21:04:24.879Z,17.84
2019-04-19T21:06:53.903Z,17.76
2019-04-19T21:09:28.208Z,17.67
2019-04-19T21:11:52.711Z,17.59
2019-04-19T21:14:26.120Z,17.54
2019-04-19T21:16:57.029Z,17.49
2019-04-19T21:19:22.383Z,17.39
2019-04-19T21:21:53.604Z,17.31
2019-04-19T21:24:20.802Z,17.25
2019-04-19T21:26:49.336Z,17.17
2019-04-19T21:29:20.978Z,17.08
2019-04-19T21:31:52.705Z,17.04
2019-04-19T21:34:18.620Z,17.00
2019-04-19T21:36:53.482Z,16.95
2019-04-19T21:39:19.709Z,16.87
2019-04-19T21:41:48.740Z,16.76
2019-04-19T21:44:21.570Z,16.67
2019-04-19T21:46:48.411Z,16.61
2019-04-19T21:49:19.843Z,16.59
2019-04-19T21:51:50.323Z,16.55
2019-04-19T21:54:20.584Z,16.46
2019-04-19T21:56:52.743Z,16.37
2019-04-19T21:59:22.853Z,16.32
2019-04-19T22:01:51.249Z,16.29
2019-04-19T22:04:21.208Z,16.28
2019-04-19T22:06:56.142Z,16.25
2019-04-19T22:09:22.201Z,16.20
2019-04-19T22:11:50.119Z,16.15
2019-04-19T22:14:23.944Z,16.10
2019-04-19T22:16:49.039Z,16.05
2019-04-19T22:19:22.419Z,15.98
2019-04-19T22:21:48.595Z,15.94
2019-04-19T22:24:26.091Z,15.90
2019-04-19T22:26:52.226Z,15.84
2019-04-19T22:29:17.947Z,15.72
2019-04-19T22:31:47.600Z,15.69
2019-04-19T22:34:16.665Z,15.66
2019-04-19T22:36:48.534Z,15.64
2019-04-19T22:39:15.852Z,15.61
2019-04-19T22:41:44.402Z,15.58
2019-04-19T22:44:12.714Z,15.57
2019-04-19T22:46:47.278Z,15.51
2019-04-19T22:49:13.777Z,15.46
2019-04-19T22:51:42.610Z,15.42
2019-04-19T22:54:11.034Z,15.37
2019-04-19T22:56:54.035Z,15.35
2019-04-19T22:59:13.174Z,15.34
2019-04-19T23:02:03.128Z,15.34
2019-04-19T23:04:29.455Z,15.28
2019-04-19T23:07:02.828Z,15.23
2019-04-19T23:09:28.583Z,15.21
2019-04-19T23:11:57.616Z,15.15
2019-04-19T23:14:46.116Z,15.12
2019-04-19T23:17:14.611Z,15.12
2019-04-19T23:19:46.518Z,15.07
2019-04-19T23:22:14.285Z,15.05
2019-04-19T23:24:48.336Z,15.01
2019-04-19T23:27:26.121Z,14.95
2019-04-19T23:29:42.798Z,14.90
2019-04-19T23:32:11.179Z,14.85
2019-04-19T23:34:47.264Z,14.79
2019-04-19T23:37:13.210Z,14.75
2019-04-19T23:39:44.953Z,14.71
2019-04-19T23:42:11.103Z,14.68
2019-04-19T23:44:39.658Z,14.64
2019-04-19T23:47:08.550Z,14.58
2019-04-19T23:49:39.604Z,14.48
2019-04-19T23:52:07.447Z,14.44
2019-04-19T23:54:37.208Z,14.41
2019-04-19T23:57:15.936Z,14.38
2019-04-19T23:59:36.504Z,14.34
